Skip to main content Skip to accessibility
This website is not compatible with your web browser. You should install a newer browser. If you live in Jersey and need help upgrading call the States of Jersey web team on 440099.
Homegov.je

Information and public services for the Island of Jersey

L'înformâtion et les sèrvices publyis pouor I'Île dé Jèrri

  • Choose the service you want to log in to:

  • gov.je

    Update your notification preferences

  • one.gov.je

    Access government services

  • CAESAR

    Clear goods through customs or claim relief

  • Talentlink

    View or update your States of Jersey job application

Local METARs

METAR EGJJ 192250Z AUTO 22016KT 9999 FEW020/// SCT033/// BKN039/// 09/07 Q1019

METAR EGJB 192250Z 22017KT 9999 -RA FEW008 BKN013 09/07 Q1018

METAR LFRD 192300Z AUTO 21009KT 9999 OVC043 09/07 Q1021 TEMPO SHRA BKN012

METAR LFRC 192300Z AUTO 23016G27KT 9999 SCT015 BKN023 BKN032 08/06 Q1018

 

 

 

​Times are in Greenwich Mean Time (GMT) and not British Summer Time (BST). They will be one hour different during BST.

Back to top
rating button